sensor_id;sensor_type;location;lat;lon;timestamp;P1;durP1;ratioP1;P2;durP2;ratioP2
23346;SDS011;36852;45.466;11.066;2024-01-27T00:00:57;96.20;;;52.88;;
23346;SDS011;36852;45.466;11.066;2024-01-27T00:03:45;82.08;;;48.95;;
23346;SDS011;36852;45.466;11.066;2024-01-27T00:08:50;83.82;;;48.65;;
23346;SDS011;36852;45.466;11.066;2024-01-27T00:14:04;79.00;;;46.60;;
23346;SDS011;36852;45.466;11.066;2024-01-27T00:16:37;79.25;;;48.58;;
23346;SDS011;36852;45.466;11.066;2024-01-27T00:19:06;82.67;;;48.63;;
23346;SDS011;36852;45.466;11.066;2024-01-27T00:21:38;82.20;;;47.50;;
23346;SDS011;36852;45.466;11.066;2024-01-27T00:24:10;80.47;;;47.30;;
23346;SDS011;36852;45.466;11.066;2024-01-27T00:27:00;83.15;;;48.48;;
23346;SDS011;36852;45.466;11.066;2024-01-27T00:29:29;76.42;;;43.90;;
23346;SDS011;36852;45.466;11.066;2024-01-27T00:32:07;75.00;;;45.35;;
23346;SDS011;36852;45.466;11.066;2024-01-27T00:34:35;82.42;;;46.10;;
23346;SDS011;36852;45.466;11.066;2024-01-27T00:37:04;92.72;;;47.95;;
23346;SDS011;36852;45.466;11.066;2024-01-27T00:39:33;86.37;;;47.62;;
23346;SDS011;36852;45.466;11.066;2024-01-27T00:42:01;87.42;;;48.60;;
23346;SDS011;36852;45.466;11.066;2024-01-27T00:44:29;124.80;;;48.25;;
23346;SDS011;36852;45.466;11.066;2024-01-27T00:47:00;83.60;;;48.15;;
23346;SDS011;36852;45.466;11.066;2024-01-27T00:49:32;86.22;;;47.40;;
23346;SDS011;36852;45.466;11.066;2024-01-27T00:51:59;98.87;;;52.05;;
23346;SDS011;36852;45.466;11.066;2024-01-27T00:54:28;118.82;;;51.58;;
23346;SDS011;36852;45.466;11.066;2024-01-27T00:56:56;127.82;;;52.38;;
23346;SDS011;36852;45.466;11.066;2024-01-27T00:59:24;161.57;;;53.17;;
23346;SDS011;36852;45.466;11.066;2024-01-27T01:01:57;106.25;;;53.65;;
23346;SDS011;36852;45.466;11.066;2024-01-27T01:04:26;106.00;;;53.25;;
23346;SDS011;36852;45.466;11.066;2024-01-27T01:06:54;94.03;;;50.52;;
23346;SDS011;36852;45.466;11.066;2024-01-27T01:09:23;88.72;;;50.50;;
23346;SDS011;36852;45.466;11.066;2024-01-27T01:11:51;100.67;;;52.17;;
23346;SDS011;36852;45.466;11.066;2024-01-27T01:14:19;94.37;;;51.70;;
23346;SDS011;36852;45.466;11.066;2024-01-27T01:16:47;98.50;;;50.98;;
23346;SDS011;36852;45.466;11.066;2024-01-27T01:19:15;89.42;;;49.42;;
23346;SDS011;36852;45.466;11.066;2024-01-27T01:21:46;95.05;;;49.18;;
23346;SDS011;36852;45.466;11.066;2024-01-27T01:24:15;95.15;;;47.70;;
23346;SDS011;36852;45.466;11.066;2024-01-27T01:26:45;116.30;;;48.63;;
23346;SDS011;36852;45.466;11.066;2024-01-27T01:29:23;90.17;;;48.98;;
23346;SDS011;36852;45.466;11.066;2024-01-27T01:31:51;99.70;;;50.10;;
23346;SDS011;36852;45.466;11.066;2024-01-27T01:34:23;104.20;;;47.88;;
23346;SDS011;36852;45.466;11.066;2024-01-27T01:36:51;89.58;;;45.78;;
23346;SDS011;36852;45.466;11.066;2024-01-27T01:39:19;80.53;;;44.67;;
23346;SDS011;36852;45.466;11.066;2024-01-27T01:41:48;73.95;;;44.70;;
23346;SDS011;36852;45.466;11.066;2024-01-27T01:44:16;76.77;;;44.83;;
23346;SDS011;36852;45.466;11.066;2024-01-27T01:46:44;80.90;;;46.18;;
23346;SDS011;36852;45.466;11.066;2024-01-27T01:49:12;77.70;;;44.48;;
23346;SDS011;36852;45.466;11.066;2024-01-27T01:51:40;79.97;;;44.67;;
23346;SDS011;36852;45.466;11.066;2024-01-27T01:54:09;76.57;;;42.40;;
23346;SDS011;36852;45.466;11.066;2024-01-27T01:56:37;72.25;;;43.28;;
23346;SDS011;36852;45.466;11.066;2024-01-27T01:59:05;73.72;;;42.05;;
23346;SDS011;36852;45.466;11.066;2024-01-27T02:01:33;74.22;;;42.45;;
23346;SDS011;36852;45.466;11.066;2024-01-27T02:04:05;115.28;;;45.12;;
23346;SDS011;36852;45.466;11.066;2024-01-27T02:06:32;92.02;;;45.38;;
23346;SDS011;36852;45.466;11.066;2024-01-27T02:09:01;86.20;;;45.92;;
23346;SDS011;36852;45.466;11.066;2024-01-27T02:11:30;112.65;;;45.10;;
23346;SDS011;36852;45.466;11.066;2024-01-27T02:13:58;126.72;;;48.15;;
23346;SDS011;36852;45.466;11.066;2024-01-27T02:16:26;87.22;;;45.20;;
23346;SDS011;36852;45.466;11.066;2024-01-27T02:18:54;96.72;;;49.53;;
23346;SDS011;36852;45.466;11.066;2024-01-27T02:21:22;93.75;;;49.75;;
23346;SDS011;36852;45.466;11.066;2024-01-27T02:23:50;135.85;;;53.98;;
23346;SDS011;36852;45.466;11.066;2024-01-27T02:26:19;105.27;;;51.88;;
23346;SDS011;36852;45.466;11.066;2024-01-27T02:28:48;93.62;;;50.12;;
23346;SDS011;36852;45.466;11.066;2024-01-27T02:31:16;94.90;;;51.50;;
23346;SDS011;36852;45.466;11.066;2024-01-27T02:33:45;112.55;;;49.95;;
23346;SDS011;36852;45.466;11.066;2024-01-27T02:36:14;118.90;;;52.85;;
23346;SDS011;36852;45.466;11.066;2024-01-27T02:38:43;103.75;;;52.70;;
23346;SDS011;36852;45.466;11.066;2024-01-27T02:41:11;115.15;;;53.45;;
23346;SDS011;36852;45.466;11.066;2024-01-27T02:43:41;95.07;;;51.65;;
23346;SDS011;36852;45.466;11.066;2024-01-27T02:46:12;91.37;;;49.60;;
23346;SDS011;36852;45.466;11.066;2024-01-27T02:48:43;117.55;;;50.00;;
23346;SDS011;36852;45.466;11.066;2024-01-27T02:51:12;146.57;;;50.95;;
23346;SDS011;36852;45.466;11.066;2024-01-27T02:53:40;88.97;;;46.60;;
23346;SDS011;36852;45.466;11.066;2024-01-27T02:56:08;79.70;;;45.92;;
23346;SDS011;36852;45.466;11.066;2024-01-27T02:58:36;126.05;;;47.90;;
23346;SDS011;36852;45.466;11.066;2024-01-27T03:01:05;88.00;;;48.23;;
23346;SDS011;36852;45.466;11.066;2024-01-27T03:03:33;96.92;;;49.58;;
23346;SDS011;36852;45.466;11.066;2024-01-27T03:06:02;93.27;;;49.03;;
23346;SDS011;36852;45.466;11.066;2024-01-27T03:08:33;86.08;;;48.52;;
23346;SDS011;36852;45.466;11.066;2024-01-27T03:11:02;91.08;;;49.30;;
23346;SDS011;36852;45.466;11.066;2024-01-27T03:13:31;98.85;;;48.38;;
23346;SDS011;36852;45.466;11.066;2024-01-27T03:15:59;88.65;;;46.68;;
23346;SDS011;36852;45.466;11.066;2024-01-27T03:18:28;88.20;;;43.90;;
23346;SDS011;36852;45.466;11.066;2024-01-27T03:20:57;86.67;;;47.15;;
23346;SDS011;36852;45.466;11.066;2024-01-27T03:23:25;81.12;;;45.83;;
23346;SDS011;36852;45.466;11.066;2024-01-27T03:25:53;77.65;;;45.20;;
23346;SDS011;36852;45.466;11.066;2024-01-27T03:28:22;87.67;;;45.00;;
23346;SDS011;36852;45.466;11.066;2024-01-27T03:30:50;98.00;;;43.73;;
23346;SDS011;36852;45.466;11.066;2024-01-27T03:33:20;78.97;;;41.73;;
23346;SDS011;36852;45.466;11.066;2024-01-27T03:35:50;72.95;;;41.13;;
23346;SDS011;36852;45.466;11.066;2024-01-27T03:38:18;64.17;;;40.52;;
23346;SDS011;36852;45.466;11.066;2024-01-27T03:40:46;69.03;;;41.35;;
23346;SDS011;36852;45.466;11.066;2024-01-27T03:43:14;65.45;;;40.05;;
23346;SDS011;36852;45.466;11.066;2024-01-27T03:45:43;62.43;;;39.35;;
23346;SDS011;36852;45.466;11.066;2024-01-27T03:48:11;66.30;;;39.50;;
23346;SDS011;36852;45.466;11.066;2024-01-27T03:50:40;69.65;;;41.90;;
23346;SDS011;36852;45.466;11.066;2024-01-27T03:53:08;72.58;;;42.25;;
23346;SDS011;36852;45.466;11.066;2024-01-27T03:55:37;73.17;;;42.17;;
23346;SDS011;36852;45.466;11.066;2024-01-27T03:58:05;78.72;;;43.28;;
23346;SDS011;36852;45.466;11.066;2024-01-27T04:00:33;78.10;;;41.15;;
23346;SDS011;36852;45.466;11.066;2024-01-27T04:03:01;82.10;;;42.03;;
23346;SDS011;36852;45.466;11.066;2024-01-27T04:05:30;89.95;;;42.73;;
23346;SDS011;36852;45.466;11.066;2024-01-27T04:08:08;100.60;;;43.38;;
23346;SDS011;36852;45.466;11.066;2024-01-27T04:10:34;75.60;;;43.00;;
23346;SDS011;36852;45.466;11.066;2024-01-27T04:13:02;76.00;;;43.42;;
23346;SDS011;36852;45.466;11.066;2024-01-27T04:15:34;85.17;;;46.13;;
23346;SDS011;36852;45.466;11.066;2024-01-27T04:18:07;84.17;;;46.43;;
23346;SDS011;36852;45.466;11.066;2024-01-27T04:20:37;74.85;;;44.50;;
23346;SDS011;36852;45.466;11.066;2024-01-27T04:23:05;75.32;;;44.38;;
23346;SDS011;36852;45.466;11.066;2024-01-27T04:25:35;70.28;;;43.25;;
23346;SDS011;36852;45.466;11.066;2024-01-27T04:28:03;71.77;;;41.35;;
23346;SDS011;36852;45.466;11.066;2024-01-27T04:30:31;72.70;;;41.75;;
23346;SDS011;36852;45.466;11.066;2024-01-27T04:33:02;72.87;;;42.13;;
23346;SDS011;36852;45.466;11.066;2024-01-27T04:35:36;67.10;;;41.02;;
23346;SDS011;36852;45.466;11.066;2024-01-27T04:38:04;73.47;;;41.42;;
23346;SDS011;36852;45.466;11.066;2024-01-27T04:40:33;75.90;;;43.17;;
23346;SDS011;36852;45.466;11.066;2024-01-27T04:43:02;73.37;;;43.38;;
23346;SDS011;36852;45.466;11.066;2024-01-27T04:45:30;88.47;;;43.08;;
23346;SDS011;36852;45.466;11.066;2024-01-27T04:47:59;91.72;;;41.85;;
23346;SDS011;36852;45.466;11.066;2024-01-27T04:50:29;170.43;;;45.10;;
23346;SDS011;36852;45.466;11.066;2024-01-27T04:52:57;88.75;;;42.73;;
23346;SDS011;36852;45.466;11.066;2024-01-27T04:55:25;114.95;;;43.60;;
23346;SDS011;36852;45.466;11.066;2024-01-27T04:57:54;114.12;;;42.70;;
23346;SDS011;36852;45.466;11.066;2024-01-27T05:00:22;141.77;;;43.25;;
23346;SDS011;36852;45.466;11.066;2024-01-27T05:02:50;219.68;;;48.02;;
23346;SDS011;36852;45.466;11.066;2024-01-27T05:05:18;85.57;;;45.00;;
23346;SDS011;36852;45.466;11.066;2024-01-27T05:07:47;118.77;;;49.05;;
23346;SDS011;36852;45.466;11.066;2024-01-27T05:10:15;87.65;;;47.88;;
23346;SDS011;36852;45.466;11.066;2024-01-27T05:12:44;87.67;;;46.53;;
23346;SDS011;36852;45.466;11.066;2024-01-27T05:15:12;79.77;;;42.40;;
23346;SDS011;36852;45.466;11.066;2024-01-27T05:17:42;89.87;;;43.92;;
23346;SDS011;36852;45.466;11.066;2024-01-27T05:20:13;92.85;;;45.28;;
23346;SDS011;36852;45.466;11.066;2024-01-27T05:22:42;162.97;;;46.60;;
23346;SDS011;36852;45.466;11.066;2024-01-27T05:25:11;117.15;;;47.10;;
23346;SDS011;36852;45.466;11.066;2024-01-27T05:27:41;111.57;;;48.17;;
23346;SDS011;36852;45.466;11.066;2024-01-27T05:30:11;95.57;;;46.30;;
23346;SDS011;36852;45.466;11.066;2024-01-27T05:32:40;112.65;;;47.43;;
23346;SDS011;36852;45.466;11.066;2024-01-27T05:35:08;96.00;;;46.40;;
23346;SDS011;36852;45.466;11.066;2024-01-27T05:37:37;117.93;;;47.65;;
23346;SDS011;36852;45.466;11.066;2024-01-27T05:40:10;89.95;;;45.15;;
23346;SDS011;36852;45.466;11.066;2024-01-27T05:42:38;111.35;;;42.33;;
23346;SDS011;36852;45.466;11.066;2024-01-27T05:45:09;88.42;;;43.20;;
23346;SDS011;36852;45.466;11.066;2024-01-27T05:47:39;80.07;;;42.90;;
23346;SDS011;36852;45.466;11.066;2024-01-27T05:50:07;69.90;;;39.73;;
23346;SDS011;36852;45.466;11.066;2024-01-27T05:52:36;69.00;;;38.95;;
23346;SDS011;36852;45.466;11.066;2024-01-27T05:55:04;63.33;;;38.30;;
23346;SDS011;36852;45.466;11.066;2024-01-27T05:57:34;67.17;;;38.35;;
23346;SDS011;36852;45.466;11.066;2024-01-27T06:00:03;70.05;;;40.03;;
23346;SDS011;36852;45.466;11.066;2024-01-27T06:02:32;81.85;;;41.77;;
23346;SDS011;36852;45.466;11.066;2024-01-27T06:05:03;90.62;;;43.00;;
23346;SDS011;36852;45.466;11.066;2024-01-27T06:07:37;116.20;;;46.02;;
23346;SDS011;36852;45.466;11.066;2024-01-27T06:10:07;139.18;;;46.33;;
23346;SDS011;36852;45.466;11.066;2024-01-27T06:12:37;134.72;;;46.53;;
23346;SDS011;36852;45.466;11.066;2024-01-27T06:15:08;180.15;;;48.90;;
23346;SDS011;36852;45.466;11.066;2024-01-27T06:17:38;128.90;;;49.00;;
23346;SDS011;36852;45.466;11.066;2024-01-27T06:20:07;93.30;;;51.35;;
23346;SDS011;36852;45.466;11.066;2024-01-27T06:22:35;104.03;;;52.83;;
23346;SDS011;36852;45.466;11.066;2024-01-27T06:25:04;95.17;;;50.38;;
23346;SDS011;36852;45.466;11.066;2024-01-27T06:27:33;118.40;;;47.88;;
23346;SDS011;36852;45.466;11.066;2024-01-27T06:30:06;89.05;;;48.83;;
23346;SDS011;36852;45.466;11.066;2024-01-27T06:32:34;81.57;;;45.03;;
23346;SDS011;36852;45.466;11.066;2024-01-27T06:35:03;83.90;;;44.38;;
23346;SDS011;36852;45.466;11.066;2024-01-27T06:37:32;82.55;;;44.98;;
23346;SDS011;36852;45.466;11.066;2024-01-27T06:40:10;87.62;;;46.60;;
23346;SDS011;36852;45.466;11.066;2024-01-27T06:42:38;73.22;;;42.88;;
23346;SDS011;36852;45.466;11.066;2024-01-27T06:45:08;85.40;;;44.73;;
23346;SDS011;36852;45.466;11.066;2024-01-27T06:47:37;85.25;;;43.83;;
23346;SDS011;36852;45.466;11.066;2024-01-27T06:50:05;90.30;;;42.80;;
23346;SDS011;36852;45.466;11.066;2024-01-27T06:52:33;89.32;;;40.52;;
23346;SDS011;36852;45.466;11.066;2024-01-27T06:55:03;79.03;;;40.30;;
23346;SDS011;36852;45.466;11.066;2024-01-27T06:57:32;98.75;;;39.48;;
23346;SDS011;36852;45.466;11.066;2024-01-27T07:00:00;124.95;;;40.90;;
23346;SDS011;36852;45.466;11.066;2024-01-27T07:02:29;77.78;;;41.20;;
23346;SDS011;36852;45.466;11.066;2024-01-27T07:04:57;78.05;;;42.78;;
23346;SDS011;36852;45.466;11.066;2024-01-27T07:07:26;80.25;;;42.70;;
23346;SDS011;36852;45.466;11.066;2024-01-27T07:09:56;79.90;;;42.93;;
23346;SDS011;36852;45.466;11.066;2024-01-27T07:12:26;77.25;;;42.60;;
23346;SDS011;36852;45.466;11.066;2024-01-27T07:14:54;88.10;;;44.73;;
23346;SDS011;36852;45.466;11.066;2024-01-27T07:17:24;89.90;;;43.70;;
23346;SDS011;36852;45.466;11.066;2024-01-27T07:19:52;86.80;;;43.40;;
23346;SDS011;36852;45.466;11.066;2024-01-27T07:22:23;86.55;;;45.43;;
23346;SDS011;36852;45.466;11.066;2024-01-27T07:24:51;93.40;;;46.92;;
23346;SDS011;36852;45.466;11.066;2024-01-27T07:27:19;107.27;;;54.48;;
23346;SDS011;36852;45.466;11.066;2024-01-27T07:29:47;86.20;;;45.50;;
23346;SDS011;36852;45.466;11.066;2024-01-27T07:32:15;99.75;;;48.08;;
23346;SDS011;36852;45.466;11.066;2024-01-27T07:34:44;88.78;;;47.33;;
23346;SDS011;36852;45.466;11.066;2024-01-27T07:37:12;76.77;;;45.80;;
23346;SDS011;36852;45.466;11.066;2024-01-27T07:39:40;74.82;;;44.10;;
23346;SDS011;36852;45.466;11.066;2024-01-27T07:42:08;78.70;;;43.02;;
23346;SDS011;36852;45.466;11.066;2024-01-27T07:44:38;83.05;;;41.05;;
23346;SDS011;36852;45.466;11.066;2024-01-27T07:47:06;71.55;;;41.10;;
23346;SDS011;36852;45.466;11.066;2024-01-27T07:49:35;68.83;;;39.15;;
23346;SDS011;36852;45.466;11.066;2024-01-27T07:52:04;92.02;;;41.15;;
23346;SDS011;36852;45.466;11.066;2024-01-27T07:54:33;70.57;;;39.38;;
23346;SDS011;36852;45.466;11.066;2024-01-27T07:57:03;62.58;;;37.20;;
23346;SDS011;36852;45.466;11.066;2024-01-27T07:59:32;73.10;;;39.25;;
23346;SDS011;36852;45.466;11.066;2024-01-27T08:02:01;66.85;;;40.28;;
23346;SDS011;36852;45.466;11.066;2024-01-27T08:04:29;66.10;;;39.75;;
23346;SDS011;36852;45.466;11.066;2024-01-27T08:06:58;71.17;;;40.33;;
23346;SDS011;36852;45.466;11.066;2024-01-27T08:09:26;67.05;;;38.08;;
23346;SDS011;36852;45.466;11.066;2024-01-27T08:11:56;71.55;;;40.80;;
23346;SDS011;36852;45.466;11.066;2024-01-27T08:14:24;74.25;;;42.25;;
23346;SDS011;36852;45.466;11.066;2024-01-27T08:16:53;71.47;;;39.55;;
23346;SDS011;36852;45.466;11.066;2024-01-27T08:19:23;74.35;;;39.30;;
23346;SDS011;36852;45.466;11.066;2024-01-27T08:21:51;65.83;;;39.33;;
23346;SDS011;36852;45.466;11.066;2024-01-27T08:24:19;66.50;;;38.83;;
23346;SDS011;36852;45.466;11.066;2024-01-27T08:26:47;83.52;;;41.83;;
23346;SDS011;36852;45.466;11.066;2024-01-27T08:29:16;61.92;;;38.35;;
23346;SDS011;36852;45.466;11.066;2024-01-27T08:41:14;66.15;;;40.08;;
23346;SDS011;36852;45.466;11.066;2024-01-27T08:44:01;64.95;;;39.53;;
23346;SDS011;36852;45.466;11.066;2024-01-27T08:49:40;84.67;;;36.68;;
23346;SDS011;36852;45.466;11.066;2024-01-27T08:58:44;73.67;;;36.25;;
23346;SDS011;36852;45.466;11.066;2024-01-27T09:23:38;58.63;;;35.15;;
23346;SDS011;36852;45.466;11.066;2024-01-27T09:26:29;56.08;;;36.17;;
23346;SDS011;36852;45.466;11.066;2024-01-27T09:31:33;58.58;;;37.70;;
23346;SDS011;36852;45.466;11.066;2024-01-27T09:34:04;63.83;;;38.17;;
23346;SDS011;36852;45.466;11.066;2024-01-27T09:39:27;67.78;;;36.15;;
23346;SDS011;36852;45.466;11.066;2024-01-27T09:48:08;67.75;;;39.05;;
23346;SDS011;36852;45.466;11.066;2024-01-27T09:51:04;68.00;;;40.83;;
23346;SDS011;36852;45.466;11.066;2024-01-27T09:56:36;74.37;;;41.53;;
23346;SDS011;36852;45.466;11.066;2024-01-27T09:59:06;69.60;;;39.75;;
23346;SDS011;36852;45.466;11.066;2024-01-27T10:01:38;71.10;;;40.70;;
23346;SDS011;36852;45.466;11.066;2024-01-27T10:04:07;71.40;;;41.88;;
23346;SDS011;36852;45.466;11.066;2024-01-27T10:06:55;68.85;;;41.25;;
23346;SDS011;36852;45.466;11.066;2024-01-27T10:09:26;66.42;;;41.10;;
23346;SDS011;36852;45.466;11.066;2024-01-27T10:11:56;70.17;;;43.08;;
23346;SDS011;36852;45.466;11.066;2024-01-27T10:17:32;69.87;;;42.55;;
23346;SDS011;36852;45.466;11.066;2024-01-27T10:20:18;70.57;;;43.00;;
23346;SDS011;36852;45.466;11.066;2024-01-27T10:22:56;71.90;;;43.50;;
23346;SDS011;36852;45.466;11.066;2024-01-27T10:29:08;70.42;;;42.90;;
23346;SDS011;36852;45.466;11.066;2024-01-27T10:57:02;77.55;;;45.08;;
23346;SDS011;36852;45.466;11.066;2024-01-27T10:59:37;72.40;;;43.80;;
23346;SDS011;36852;45.466;11.066;2024-01-27T11:02:08;77.65;;;46.80;;
23346;SDS011;36852;45.466;11.066;2024-01-27T11:04:53;81.70;;;46.23;;
23346;SDS011;36852;45.466;11.066;2024-01-27T11:07:34;82.45;;;46.80;;
23346;SDS011;36852;45.466;11.066;2024-01-27T11:10:02;81.17;;;47.60;;
23346;SDS011;36852;45.466;11.066;2024-01-27T14:06:41;148.75;;;74.35;;
23346;SDS011;36852;45.466;11.066;2024-01-27T22:57:28;146.05;;;64.30;;
23346;SDS011;36852;45.466;11.066;2024-01-27T23:03:12;143.05;;;64.67;;
23346;SDS011;36852;45.466;11.066;2024-01-27T23:51:41;174.05;;;78.60;;
23346;SDS011;36852;45.466;11.066;2024-01-27T23:54:17;175.00;;;79.10;;
